Time,TemperatureF,DewpointF,PressureIn,WindDirection,WindDirectionDegrees,WindSpeedMPH,WindSpeedGustMPH,Humidity,HourlyPrecipIn,Conditions,Clouds,dailyrainin,SoftwareType,DateUTC
2013-07-11 00:22:00,65.0,62.0,-100.00,SE,125,1.0,2.0,90,-99.99,,,-99.99,,2013-07-11 05:22:00,
2013-07-11 00:43:00,65.0,64.0,-100.00,WNW,285,1.0,2.0,96,-99.99,,,-99.99,,2013-07-11 05:43:00,
2013-07-11 00:52:00,65.0,64.0,-100.00,WNW,285,1.0,2.0,96,-99.99,,,-99.99,,2013-07-11 05:52:00,
2013-07-11 01:12:00,64.0,62.0,-100.00,SE,125,1.0,1.0,93,-99.99,,,-99.99,,2013-07-11 06:12:00,
2013-07-11 01:22:00,64.0,62.0,-100.00,SE,125,1.0,1.0,93,-99.99,,,-99.99,,2013-07-11 06:22:00,
2013-07-11 01:43:00,65.0,64.0,-100.00,NNW,335,1.0,1.0,97,-99.99,,,-99.99,,2013-07-11 06:43:00,
2013-07-11 01:53:00,65.0,64.0,-100.00,NNW,335,1.0,1.0,97,-99.99,,,-99.99,,2013-07-11 06:53:00,
2013-07-11 02:22:00,66.0,62.0,-100.00,WNW,285,2.0,4.0,87,-99.99,,,-99.99,,2013-07-11 07:22:00,
2013-07-11 02:45:00,66.0,62.0,-100.00,NW,315,4.0,4.0,88,-99.99,,,-99.99,,2013-07-11 07:45:00,
2013-07-11 02:53:00,66.0,62.0,-100.00,NW,315,4.0,4.0,88,-99.99,,,-99.99,,2013-07-11 07:53:00,
2013-07-11 03:22:00,66.0,62.0,-100.00,NW,310,2.0,4.0,86,-99.99,,,-99.99,,2013-07-11 08:22:00,
2013-07-11 03:43:00,66.0,62.0,-100.00,NW,320,3.0,4.0,87,-99.99,,,-99.99,,2013-07-11 08:43:00,
2013-07-11 03:53:00,66.0,62.0,-100.00,NW,320,3.0,4.0,87,-99.99,,,-99.99,,2013-07-11 08:53:00,
2013-07-11 04:21:00,66.0,61.0,-100.00,North,0,3.0,5.0,86,-99.99,,,-99.99,,2013-07-11 09:21:00,
2013-07-11 04:43:00,65.0,61.0,-100.00,NNW,330,4.0,6.0,84,-99.99,,,-99.99,,2013-07-11 09:43:00,
2013-07-11 04:53:00,65.0,61.0,-100.00,NNW,330,4.0,6.0,84,-99.99,,,-99.99,,2013-07-11 09:53:00,
2013-07-11 05:22:00,65.0,60.0,-100.00,NNW,330,2.0,6.0,83,-99.99,,,-99.99,,2013-07-11 10:22:00,
2013-07-11 05:43:00,65.0,61.0,-100.00,NW,305,3.0,6.0,86,-99.99,,,-99.99,,2013-07-11 10:43:00,
2013-07-11 05:52:00,65.0,61.0,-100.00,NW,305,3.0,6.0,86,-99.99,,,-99.99,,2013-07-11 10:52:00,
2013-07-11 06:22:00,65.0,61.0,-100.00,North,0,1.0,6.0,87,-99.99,,,-99.99,,2013-07-11 11:22:00,
2013-07-11 06:43:00,65.0,61.0,-100.00,NW,320,2.0,5.0,89,-99.99,,,-99.99,,2013-07-11 11:43:00,
2013-07-11 06:53:00,65.0,61.0,-100.00,NW,320,2.0,5.0,89,-99.99,,,-99.99,,2013-07-11 11:53:00,
2013-07-11 07:12:00,65.0,60.0,-100.00,North,0,2.0,6.0,84,-99.99,,,-99.99,,2013-07-11 12:12:00,
2013-07-11 07:22:00,65.0,60.0,-100.00,North,0,2.0,6.0,84,-99.99,,,-99.99,,2013-07-11 12:22:00,
2013-07-11 07:57:00,66.0,61.0,-100.00,NW,320,1.0,4.0,84,-99.99,,,-99.99,,2013-07-11 12:57:00,
2013-07-11 08:23:00,67.0,61.0,-100.00,NNW,330,3.0,6.0,81,-99.99,,,-99.99,,2013-07-11 13:23:00,
2013-07-11 08:45:00,69.0,61.0,-100.00,NNW,330,1.0,6.0,77,-99.99,,,-99.99,,2013-07-11 13:45:00,
2013-07-11 08:55:00,69.0,61.0,-100.00,NNW,330,1.0,6.0,77,-99.99,,,-99.99,,2013-07-11 13:55:00,
2013-07-11 09:45:00,75.0,63.0,-100.00,NNW,330,1.0,4.0,67,-99.99,,,-99.99,,2013-07-11 14:45:00,
2013-07-11 09:55:00,75.0,63.0,-100.00,NNW,330,1.0,4.0,67,-99.99,,,-99.99,,2013-07-11 14:55:00,
2013-07-11 10:13:00,76.0,64.0,-100.00,North,0,1.0,5.0,65,-99.99,,,-99.99,,2013-07-11 15:13:00,
2013-07-11 10:24:00,76.0,64.0,-100.00,North,0,1.0,5.0,65,-99.99,,,-99.99,,2013-07-11 15:24:00,
2013-07-11 10:46:00,77.0,62.0,-100.00,NNE,15,2.0,6.0,59,-99.99,,,-99.99,,2013-07-11 15:46:00,
2013-07-11 10:58:00,77.0,62.0,-100.00,NNE,15,2.0,6.0,59,-99.99,,,-99.99,,2013-07-11 15:58:00,
2013-07-11 11:25:00,80.0,57.0,-100.00,NNE,15,2.0,5.0,46,-99.99,,,-99.99,,2013-07-11 16:25:00,
2013-07-11 11:46:00,80.0,58.0,-100.00,NNW,330,1.0,6.0,48,-99.99,,,-99.99,,2013-07-11 16:46:00,
2013-07-11 11:56:00,80.0,58.0,-100.00,NNW,330,1.0,6.0,48,-99.99,,,-99.99,,2013-07-11 16:56:00,
2013-07-11 12:26:00,81.0,58.0,-100.00,NNE,30,1.0,4.0,46,-99.99,,,-99.99,,2013-07-11 17:26:00,
2013-07-11 12:45:00,80.0,57.0,-100.00,ENE,65,3.0,8.0,46,-99.99,,,-99.99,,2013-07-11 17:45:00,
2013-07-11 12:56:00,80.0,57.0,-100.00,ENE,65,3.0,8.0,46,-99.99,,,-99.99,,2013-07-11 17:56:00,
2013-07-11 13:05:00,81.0,61.0,-100.00,NW,310,1.0,4.0,50,-99.99,,,-99.99,,2013-07-11 18:05:00,
2013-07-11 13:24:00,81.0,56.0,-100.00,East,90,3.0,5.0,43,-99.99,,,-99.99,,2013-07-11 18:24:00,
2013-07-11 13:45:00,81.0,57.0,-100.00,ENE,60,3.0,7.0,43,-99.99,,,-99.99,,2013-07-11 18:45:00,
2013-07-11 13:56:00,81.0,57.0,-100.00,ENE,60,3.0,7.0,43,-99.99,,,-99.99,,2013-07-11 18:56:00,
2013-07-11 14:24:00,82.0,60.0,-100.00,North,0,1.0,7.0,48,-99.99,,,-99.99,,2013-07-11 19:24:00,
2013-07-11 14:44:00,82.0,62.0,-100.00,North,0,2.0,7.0,51,-99.99,,,-99.99,,2013-07-11 19:44:00,
2013-07-11 14:57:00,82.0,62.0,-100.00,North,0,2.0,7.0,51,-99.99,,,-99.99,,2013-07-11 19:57:00,
2013-07-11 15:26:00,82.0,61.0,-100.00,NNE,30,2.0,6.0,48,-99.99,,,-99.99,,2013-07-11 20:26:00,
2013-07-11 15:46:00,82.0,60.0,-100.00,North,0,1.0,7.0,47,-99.99,,,-99.99,,2013-07-11 20:46:00,
2013-07-11 15:56:00,82.0,60.0,-100.00,North,0,1.0,7.0,47,-99.99,,,-99.99,,2013-07-11 20:56:00,
2013-07-11 16:24:00,83.0,62.0,-100.00,NNE,25,1.0,4.0,49,-99.99,,,-99.99,,2013-07-11 21:24:00,
2013-07-11 16:58:00,83.0,59.0,-100.00,ENE,65,1.0,6.0,45,-99.99,,,-99.99,,2013-07-11 21:58:00,
2013-07-11 17:55:00,83.0,59.0,-100.00,NW,310,1.0,6.0,44,-99.99,,,-99.99,,2013-07-11 22:55:00,
2013-07-11 18:25:00,82.0,60.0,-100.00,NNW,340,0.0,6.0,46,-99.99,,,-99.99,,2013-07-11 23:25:00,
2013-07-11 18:46:00,81.0,62.0,-100.00,North,0,1.0,5.0,53,-99.99,,,-99.99,,2013-07-11 23:46:00,
2013-07-11 18:59:00,81.0,62.0,-100.00,North,0,1.0,5.0,53,-99.99,,,-99.99,,2013-07-11 23:59:00,
2013-07-11 19:25:00,80.0,59.0,-100.00,ESE,115,1.0,6.0,49,-99.99,,,-99.99,,2013-07-12 00:25:00,
2013-07-11 19:36:00,80.0,59.0,-100.00,ESE,115,1.0,6.0,49,-99.99,,,-99.99,,2013-07-12 00:36:00,
2013-07-11 19:58:00,79.0,60.0,-100.00,SE,125,2.0,4.0,53,-99.99,,,-99.99,,2013-07-12 00:58:00,
2013-07-11 20:26:00,76.0,61.0,-100.00,ENE,65,1.0,3.0,60,-99.99,,,-99.99,,2013-07-12 01:26:00,
2013-07-11 20:46:00,74.0,63.0,-100.00,SE,135,0.0,3.0,69,-99.99,,,-99.99,,2013-07-12 01:46:00,
2013-07-11 20:56:00,74.0,63.0,-100.00,SE,135,0.0,3.0,69,-99.99,,,-99.99,,2013-07-12 01:56:00,
2013-07-11 21:25:00,72.0,60.0,-100.00,ESE,105,0.0,1.0,66,-99.99,,,-99.99,,2013-07-12 02:25:00,
2013-07-11 21:55:00,71.0,60.0,-100.00,NW,325,0.0,1.0,70,-99.99,,,-99.99,,2013-07-12 02:55:00,
2013-07-11 22:14:00,69.0,61.0,-100.00,North,355,0.0,1.0,74,-99.99,,,-99.99,,2013-07-12 03:14:00,
2013-07-11 22:24:00,69.0,61.0,-100.00,North,355,0.0,1.0,74,-99.99,,,-99.99,,2013-07-12 03:24:00,
2013-07-11 22:56:00,68.0,60.0,-100.00,North,0,0.0,0.0,75,-99.99,,,-99.99,,2013-07-12 03:56:00,
2013-07-11 23:11:00,68.0,59.0,-100.00,North,0,0.0,0.0,73,-99.99,,,-99.99,,2013-07-12 04:11:00,
2013-07-11 23:22:00,68.0,59.0,-100.00,North,0,0.0,0.0,73,-99.99,,,-99.99,,2013-07-12 04:22:00,
2013-07-11 23:43:00,68.0,62.0,-100.00,North,0,0.0,0.0,80,-99.99,,,-99.99,,2013-07-12 04:43:00,
2013-07-11 23:53:00,68.0,62.0,-100.00,North,0,0.0,0.0,80,-99.99,,,-99.99,,2013-07-12 04:53:00,